tititudorancea.com
Station Historical Data
Daily Summary for March 2, 2018 Units:  Metric    English   Both
« Previous Day
Next Day »
Daily Weekly Monthly Yearly Custom
  High: Low: Average:
Temperature: -17.8 °C 11.5 °C 19.1 °C
Dew Point: -17.8 °C 6.7 °C 9.6 °C
Humidity: Humidity % 25 % 61 %
Wind Speed: 0 km/h 0 km/h 4.8 km/h
Wind Gust: 0 km/h - -
Wind:- - SW
Pressure: 0 hPa 1007.7 hPa -
Precipitation: 0 mm    
Historical Graphs
 
 
Ararat weather Find more about Weather in Ararat, AU


 



 


Tabular Data for March 2, 2018
Time Temperature Dew Point Pressure Wind Wind Speed Wind Gust Humidity Rainfall Rate (Hourly)
-17.8 °C -17.8 °C 0 hPa Calm     Humidity % 0 mm
00:01 13.4 °C 10.9 °C 1015.1 hPa South 8.4 km/h 13 km/h 85 % 0 mm
00:06 13.3 °C 10.9 °C 1015.1 hPa South 8 km/h 16.7 km/h 85 % 0 mm
00:11 13.2 °C 10.9 °C 1015.1 hPa South 7.9 km/h 11.1 km/h 86 % 0 mm
00:16 13.1 °C 10.8 °C 1015.1 hPa South 7.1 km/h 9.3 km/h 86 % 0 mm
00:21 13.1 °C 10.8 °C 1015.1 hPa South 5.3 km/h 11.1 km/h 86 % 0 mm
00:26 12.9 °C 10.8 °C 1015.1 hPa North 4.7 km/h 7.4 km/h 87 % 0 mm
00:31 12.9 °C 10.8 °C 1015.1 hPa North 5 km/h 7.4 km/h 87 % 0 mm
00:36 12.8 °C 10.7 °C 1015.1 hPa North 6.3 km/h 9.3 km/h 87 % 0 mm
00:41 12.8 °C 10.9 °C 1014.8 hPa South 8.7 km/h 16.7 km/h 88 % 0 mm
00:46 12.8 °C 10.8 °C 1014.8 hPa North 7.9 km/h 9.3 km/h 88 % 0 mm
00:51 12.7 °C 10.8 °C 1014.8 hPa South 9.8 km/h 13 km/h 88 % 0 mm
00:56 12.7 °C 10.7 °C 1014.8 hPa South 6.8 km/h 14.8 km/h 88 % 0 mm
01:01 12.6 °C 10.7 °C 1014.8 hPa North 6.4 km/h 11.3 km/h 88 % 0 mm
01:06 12.6 °C 10.6 °C 1014.8 hPa North 5.1 km/h 7.4 km/h 88 % 0 mm
01:11 12.5 °C 10.7 °C 1014.4 hPa South 1.9 km/h 7.4 km/h 89 % 0 mm
01:16 12.4 °C 10.6 °C 1014.4 hPa South 5 km/h 9.3 km/h 89 % 0 mm
01:21 12.3 °C 10.6 °C 1014.4 hPa South 4.3 km/h 7.4 km/h 89 % 0 mm
01:26 12.3 °C 10.6 °C 1014.4 hPa North 3.7 km/h 9.3 km/h 89 % 0 mm
01:32 12.3 °C 10.5 °C 1014.4 hPa South 3.4 km/h 7.4 km/h 89 % 0 mm
01:37 12.2 °C 10.6 °C 1014.1 hPa North 4 km/h 11.1 km/h 90 % 0 mm
01:42 12.2 °C 10.4 °C 1014.1 hPa South 6.1 km/h 7.4 km/h 89 % 0 mm
01:47 12.1 °C 10.4 °C 1014.1 hPa South 4.7 km/h 7.4 km/h 90 % 0 mm
01:52 12.1 °C 10.4 °C 1014.4 hPa South 6.4 km/h 11.1 km/h 90 % 0 mm
01:57 12.1 °C 10.4 °C 1014.4 hPa South 5.8 km/h 9.3 km/h 90 % 0 mm
02:02 12.1 °C 10.6 °C 1014.4 hPa South 5.6 km/h 9.7 km/h 91 % 0 mm
02:07 12.1 °C 10.6 °C 1014.4 hPa North 4.7 km/h 6.4 km/h 91 % 0 mm
02:11 12.1 °C 10.4 °C 1014.1 hPa North 2.6 km/h 3.7 km/h 90 % 0 mm
02:16 11.9 °C 10.3 °C 1014.1 hPa North 2.6 km/h 3.7 km/h 90 % 0 mm
02:21 11.9 °C 10.3 °C 1013.8 hPa North 3.5 km/h 5.6 km/h 90 % 0 mm
02:27 11.8 °C 10.3 °C 1013.8 hPa South 2.3 km/h 5.6 km/h 91 % 0 mm
02:32 11.7 °C 10.3 °C 1014.1 hPa South 5.1 km/h 5.6 km/h 91 % 0 mm
02:37 11.7 °C 10.3 °C 1014.1 hPa South 5 km/h 8 km/h 91 % 0 mm
02:42 11.7 °C 10.3 °C 1014.1 hPa North 6 km/h 9.3 km/h 91 % 0 mm
02:47 11.7 °C 10.3 °C 1014.1 hPa North 0.3 km/h 7.4 km/h 91 % 0 mm
02:51 11.7 °C 10.2 °C 1014.1 hPa North 1.4 km/h 3.7 km/h 91 % 0 mm
02:57 11.7 °C 10.2 °C 1014.1 hPa North 0.5 km/h 1.9 km/h 91 % 0 mm
03:02 11.7 °C 10.4 °C 1014.1 hPa North 2.9 km/h 5.6 km/h 92 % 0 mm
03:07 11.7 °C 10.4 °C 1014.1 hPa North 3.1 km/h 5.6 km/h 92 % 0 mm
03:12 11.8 °C 10.5 °C 1014.1 hPa South 6.4 km/h 9.3 km/h 92 % 0 mm
03:17 11.8 °C 10.6 °C 1013.8 hPa South 3.2 km/h 7.4 km/h 92 % 0 mm
03:22 11.9 °C 10.6 °C 1013.8 hPa North 4.2 km/h 5.6 km/h 92 % 0 mm
03:27 11.9 °C 10.7 °C 1013.8 hPa North 1.9 km/h 3.7 km/h 92 % 0 mm
03:32 11.9 °C 10.7 °C 1014.1 hPa South 1.9 km/h 5.6 km/h 92 % 0 mm
03:37 11.9 °C 10.7 °C 1013.8 hPa South 6.3 km/h 7.4 km/h 92 % 0 mm
03:42 11.9 °C 10.7 °C 1014.1 hPa North 1 km/h 3.7 km/h 92 % 0 mm
03:47 11.9 °C 10.6 °C 1013.8 hPa Calm   1.9 km/h 92 % 0 mm
03:52 11.8 °C 10.6 °C 1013.8 hPa North 5.8 km/h 7.4 km/h 92 % 0 mm
03:57 11.8 °C 10.5 °C 1013.1 hPa South 6.8 km/h 9.3 km/h 92 % 0 mm
04:02 11.7 °C 10.4 °C 1013.1 hPa South 5 km/h 7.4 km/h 92 % 0 mm
04:07 11.7 °C 10.4 °C 1013.1 hPa South 4 km/h 7.4 km/h 92 % 0 mm
04:12 11.7 °C 10.4 °C 1013.1 hPa North 2.1 km/h 5.6 km/h 92 % 0 mm
04:17 11.7 °C 10.4 °C 1013.1 hPa South 5.5 km/h 9.3 km/h 92 % 0 mm
04:22 11.8 °C 10.5 °C 1013.1 hPa North 2.7 km/h 4.8 km/h 92 % 0 mm
04:27 11.8 °C 10.5 °C 1013.1 hPa South 5 km/h 5.6 km/h 92 % 0 mm
04:32 11.8 °C 10.6 °C 1013.4 hPa South 4.5 km/h 6.4 km/h 92 % 0 mm
04:37 11.8 °C 10.6 °C 1013.4 hPa South 6.4 km/h 9.3 km/h 92 % 0 mm
04:42 11.9 °C 10.6 °C 1013.4 hPa South 5 km/h 7.4 km/h 92 % 0 mm
04:47 11.9 °C 10.6 °C 1013.1 hPa North 1.9 km/h 3.7 km/h 92 % 0 mm
04:52 11.8 °C 10.6 °C 1013.1 hPa South 0.5 km/h 3.7 km/h 92 % 0 mm
04:57 11.8 °C 10.3 °C 1013.1 hPa South 4.7 km/h 9.7 km/h 91 % 0 mm
05:02 11.8 °C 10.3 °C 1013.1 hPa North 5.5 km/h 9.3 km/h 91 % 0 mm
05:07 11.7 °C 10.4 °C 1013.1 hPa South 4.7 km/h 7.4 km/h 92 % 0 mm
05:12 11.8 °C 10.5 °C 1013.1 hPa North 5.6 km/h 7.4 km/h 92 % 0 mm
05:17 11.8 °C 10.5 °C 1013.1 hPa North 1.4 km/h 5.6 km/h 92 % 0 mm
05:22 11.8 °C 10.5 °C 1013.1 hPa South 5.3 km/h 8 km/h 92 % 0 mm
05:27 11.9 °C 10.7 °C 1013.1 hPa North 4.7 km/h 11.1 km/h 92 % 0 mm
05:32 11.9 °C 10.6 °C 1013.1 hPa South 4.8 km/h 8 km/h 92 % 0 mm
05:37 11.8 °C 10.3 °C 1012.8 hPa North 5.5 km/h 7.4 km/h 91 % 0 mm
05:42 11.7 °C 10.4 °C 1013.1 hPa North 5.1 km/h 9.3 km/h 92 % 0 mm
05:47 11.7 °C 10.4 °C 1013.1 hPa South 5.8 km/h 9.3 km/h 92 % 0 mm
05:52 11.6 °C 10.3 °C 1013.1 hPa South 5 km/h 9.3 km/h 92 % 0 mm
05:57 11.6 °C 10.3 °C 1012.8 hPa North 4.5 km/h 5.6 km/h 92 % 0 mm
06:02 11.5 °C 10.2 °C 1012.8 hPa South 4.7 km/h 11.1 km/h 92 % 0 mm
06:07 11.5 °C 10.2 °C 1012.8 hPa South 5.1 km/h 8 km/h 92 % 0 mm
06:12 11.5 °C 10.2 °C 1013.1 hPa North 1.9 km/h 3.7 km/h 92 % 0 mm
06:17 11.6 °C 10.5 °C 1013.1 hPa North 4 km/h 5.6 km/h 93 % 0 mm
06:22 11.7 °C 10.6 °C 1013.1 hPa North 5.1 km/h 7.4 km/h 93 % 0 mm
06:27 11.7 °C 10.6 °C 1013.1 hPa South 6.1 km/h 9.3 km/h 93 % 0 mm
06:32 11.8 °C 10.7 °C 1013.1 hPa South 4.7 km/h 7.4 km/h 93 % 0 mm
06:37 11.8 °C 10.7 °C 1013.4 hPa South 6.8 km/h 9.7 km/h 93 % 0 mm
06:42 11.8 °C 10.7 °C 1013.4 hPa South 5.5 km/h 8 km/h 93 % 0 mm
06:47 11.8 °C 10.7 °C 1013.4 hPa North 3.2 km/h 5.6 km/h 93 % 0 mm
06:52 11.9 °C 10.6 °C 1013.4 hPa South 3.4 km/h 5.6 km/h 92 % 0 mm
06:57 11.9 °C 10.6 °C 1013.1 hPa South 6.4 km/h 11.3 km/h 92 % 0 mm
07:02 11.8 °C 10.6 °C 1013.1 hPa North 6.4 km/h 9.3 km/h 92 % 0 mm
07:07 11.9 °C 10.6 °C 1013.1 hPa South 5.6 km/h 9.3 km/h 92 % 0 mm
07:12 11.9 °C 10.7 °C 1013.1 hPa South 8.7 km/h 13 km/h 92 % 0 mm
07:17 12 °C 10.9 °C 1013.1 hPa South 6.8 km/h 13 km/h 93 % 0 mm
07:22 12 °C 10.7 °C 1013.4 hPa South 5.3 km/h 8 km/h 92 % 0 mm
07:27 12 °C 10.7 °C 1013.4 hPa South 5.5 km/h 8 km/h 92 % 0 mm
07:32 12.1 °C 10.8 °C 1013.1 hPa South 6.6 km/h 13 km/h 92 % 0 mm
07:37 12.1 °C 10.8 °C 1013.1 hPa North 7.1 km/h 11.1 km/h 92 % 0 mm
07:42 12.1 °C 10.8 °C 1013.1 hPa South 9 km/h 14.8 km/h 92 % 0 mm
07:47 12.2 °C 10.9 °C 1013.1 hPa North 6.9 km/h 13 km/h 92 % 0 mm
07:52 12.2 °C 10.9 °C 1013.1 hPa North 6.1 km/h 9.3 km/h 92 % 0 mm
07:57 12.2 °C 10.9 °C 1013.4 hPa South 4.8 km/h 7.4 km/h 92 % 0 mm
08:02 12.3 °C 11.1 °C 1013.4 hPa South 5.6 km/h 6.4 km/h 92 % 0 mm
08:07 12.4 °C 11.1 °C 1013.4 hPa North 0.3 km/h 4.8 km/h 92 % 0 mm
08:12 12.5 °C 11.2 °C 1013.8 hPa North 2.1 km/h 3.7 km/h 92 % 0 mm
08:17 12.6 °C 11.3 °C 1013.8 hPa South 1.1 km/h 3.7 km/h 92 % 0 mm
08:22 12.7 °C 11.4 °C 1013.8 hPa South 0.6 km/h 3.7 km/h 92 % 0 mm
08:27 12.8 °C 11.5 °C 1014.1 hPa South 4.7 km/h 5.6 km/h 92 % 0 mm
08:32 12.9 °C 11.5 °C 1014.1 hPa North 6.9 km/h 9.3 km/h 91 % 0 mm
08:37 13.1 °C 11.6 °C 1013.8 hPa North 5.8 km/h 11.1 km/h 91 % 0 mm
08:42 13.2 °C 11.6 °C 1014.1 hPa South 6.6 km/h 9.3 km/h 90 % 0 mm
08:47 13.3 °C 11.7 °C 1014.1 hPa North 8.2 km/h 9.3 km/h 90 % 0 mm
08:52 13.4 °C 11.8 °C 1014.1 hPa North 9.3 km/h 13 km/h 90 % 0 mm
08:57 13.6 °C 11.8 °C 1013.8 hPa South 8.7 km/h 11.1 km/h 89 % 0 mm
09:02 13.7 °C 11.9 °C 1013.8 hPa South 5.3 km/h 11.1 km/h 89 % 0 mm
09:07 13.7 °C 11.8 °C 1013.8 hPa North 7.9 km/h 14.8 km/h 88 % 0 mm
09:12 13.8 °C 11.8 °C 1013.8 hPa North 6.1 km/h 11.1 km/h 88 % 0 mm
09:17 13.9 °C 11.8 °C 1013.4 hPa North 10 km/h 18.5 km/h 87 % 0 mm
09:22 14.1 °C 12.2 °C 1013.4 hPa South 9.2 km/h 13 km/h 88 % 0 mm
09:27 14.5 °C 12.3 °C 1013.4 hPa South 11.4 km/h 14.8 km/h 87 % 0 mm
09:32 14.6 °C 12.4 °C 1013.4 hPa SSE 7.6 km/h 11.1 km/h 87 % 0 mm
09:37 14.6 °C 12.2 °C 1013.4 hPa SSE 10.9 km/h 14.5 km/h 86 % 0 mm
09:42 14.7 °C 12.5 °C 1013.4 hPa North 10.6 km/h 14.8 km/h 87 % 0 mm
09:47 15.2 °C 13 °C 1013.4 hPa SSE 10.1 km/h 16.1 km/h 87 % 0 mm
09:52 15.7 °C 13 °C 1013.4 hPa SSE 10.6 km/h 14.8 km/h 84 % 0 mm
09:57 16.2 °C 12.9 °C 1013.4 hPa SSE 11.1 km/h 16.7 km/h 81 % 0 mm
10:02 16.3 °C 12.9 °C 1013.1 hPa SE 5.1 km/h 7.4 km/h 80 % 0 mm
10:07 16.6 °C 12.9 °C 1013.1 hPa SSE 10.8 km/h 14.8 km/h 79 % 0 mm
10:12 16.8 °C 12.7 °C 1013.1 hPa SE 11.3 km/h 14.8 km/h 77 % 0 mm
10:17 16.9 °C 12.7 °C 1013.1 hPa SE 5 km/h 8 km/h 76 % 0 mm
10:22 17.2 °C 12.7 °C 1013.1 hPa SSE 11.1 km/h 14.8 km/h 75 % 0 mm
10:27 17.3 °C 12.8 °C 1013.4 hPa SSE 5.5 km/h 9.3 km/h 75 % 0 mm
10:32 17.6 °C 12.7 °C 1013.4 hPa SSE 8.2 km/h 11.1 km/h 73 % 0 mm
10:37 17.7 °C 13 °C 1013.1 hPa SSE 8.5 km/h 13 km/h 74 % 0 mm
10:42 17.7 °C 13 °C 1013.1 hPa SSE 8 km/h 9.7 km/h 74 % 0 mm
10:47 17.8 °C 12.7 °C 1013.1 hPa SSE 9.8 km/h 11.1 km/h 72 % 0 mm
10:52 18.1 °C 12.9 °C 1013.4 hPa SSE 9.8 km/h 13 km/h 72 % 0 mm
10:57 18.1 °C 12.6 °C 1013.1 hPa SSE 10.5 km/h 13 km/h 70 % 0 mm
11:02 18.2 °C 12.4 °C 1013.1 hPa SSE 12.4 km/h 18.5 km/h 69 % 0 mm
11:07 18.3 °C 12.3 °C 1013.1 hPa SE 11.9 km/h 13 km/h 68 % 0 mm
11:12 18.4 °C 12.4 °C 1013.1 hPa SSE 8.9 km/h 13 km/h 68 % 0 mm
11:17 18.7 °C 12.4 °C 1013.1 hPa SSE 12.6 km/h 16.1 km/h 67 % 0 mm
11:22 19 °C 12.3 °C 1013.1 hPa SSE 4.2 km/h 13 km/h 65 % 0 mm
11:27 19.3 °C 12.6 °C 1013.1 hPa South 1.6 km/h 5.6 km/h 65 % 0 mm
11:32 19.7 °C 12.5 °C 1013.1 hPa South 10.9 km/h 13 km/h 63 % 0 mm
11:37 20 °C 12.2 °C 1013.1 hPa South 9.5 km/h 13 km/h 61 % 0 mm
11:42 20.2 °C 11.9 °C 1013.1 hPa South 3.7 km/h 9.3 km/h 59 % 0 mm
11:47 20.5 °C 11.9 °C 1013.1 hPa South 0.5 km/h 6.4 km/h 58 % 0 mm
11:52 20.9 °C 11.8 °C 1012.8 hPa Calm   7.4 km/h 56 % 0 mm
11:57 21.5 °C 11.5 °C 1012.8 hPa SSE 6.6 km/h 9.3 km/h 53 % 0 mm
12:02 21.6 °C 11 °C 1012.8 hPa SSE 8 km/h 14.8 km/h 51 % 0 mm
12:07 21.9 °C 11.1 °C 1012.4 hPa SSE 3.7 km/h 8 km/h 50 % 0 mm
12:12 22.4 °C 11.2 °C 1012.4 hPa SSE 8.2 km/h 13 km/h 49 % 0 mm
12:17 22.8 °C 11.2 °C 1012.4 hPa SSE 9.3 km/h 9.3 km/h 48 % 0 mm
12:22 22.8 °C 10.9 °C 1012.1 hPa SSE 6.3 km/h 7.4 km/h 47 % 0 mm
12:27 22.7 °C 10.8 °C 1012.1 hPa SSE 11.4 km/h 11.4 km/h 47 % 0 mm
12:32 22.7 °C 10.8 °C 1012.1 hPa SSE 9.7 km/h 18.5 km/h 47 % 0 mm
12:37 23 °C 10.8 °C 1012.1 hPa SSE 1.1 km/h 7.4 km/h 46 % 0 mm
12:42 23.5 °C 10.9 °C 1012.1 hPa SSE 6.6 km/h 13 km/h 45 % 0 mm
12:47 23.3 °C 10.4 °C 1012.1 hPa SSE 8.7 km/h 9.3 km/h 44 % 0 mm
12:52 23.5 °C 10.9 °C 1011.7 hPa SSE 5.6 km/h 6.4 km/h 45 % 0 mm
12:57 23.8 °C 10.8 °C 1011.7 hPa SSE 9 km/h 11.1 km/h 44 % 0 mm
12:58 23.8 °C 10.8 °C 1011.7 hPa SSE 9.2 km/h 11.1 km/h 44 % 0 mm
13:03 23.9 °C 10.2 °C 1011.7 hPa SSE 10.1 km/h 12.9 km/h 42 % 0 mm
13:08 24.1 °C 10.1 °C 1011.4 hPa SSE 5.1 km/h 7.4 km/h 41 % 0 mm
13:13 24.6 °C 10.4 °C 1011.4 hPa SSE 2.4 km/h 5.6 km/h 41 % 0 mm
13:18 25 °C 9.7 °C 1011.4 hPa SSE 2.7 km/h 3.2 km/h 38 % 0 mm
13:23 25.3 °C 9.6 °C 1011.4 hPa SSE 11.4 km/h 12.9 km/h 37 % 0 mm
13:29 25.6 °C 9.8 °C 1011.1 hPa East 6.3 km/h 13 km/h 37 % 0 mm
13:34 25.5 °C 9.7 °C 1011.1 hPa SE 6.6 km/h 18.5 km/h 37 % 0 mm
13:39 25.8 °C 9.2 °C 1011.1 hPa SSE 12.2 km/h 12.2 km/h 35 % 0 mm
13:44 25.5 °C 8.5 °C 1011.1 hPa SSE 7.1 km/h 9.7 km/h 34 % 0 mm
13:49 25.4 °C 8.8 °C 1011.1 hPa SSE 1.1 km/h 3.7 km/h 35 % 0 mm
13:54 25.9 °C 8.8 °C 1011.1 hPa SSE 8 km/h 11.1 km/h 34 % 0 mm
13:59 25.8 °C 8.8 °C 1010.7 hPa SSE 7.6 km/h 9.7 km/h 34 % 0 mm
14:04 26.1 °C 8.9 °C 1011.1 hPa SSE 7.4 km/h 13 km/h 34 % 0 mm
14:09 26.2 °C 8.7 °C 1010.7 hPa SSE 7.9 km/h 9.3 km/h 33 % 0 mm
14:14 26.1 °C 8.1 °C 1010.7 hPa SSE 5.3 km/h 6.4 km/h 32 % 0 mm
14:19 26.4 °C 8.4 °C 1010.4 hPa South 15.4 km/h 18.5 km/h 32 % 0 mm
14:24 26.4 °C 7.9 °C 1010.4 hPa South 8 km/h 9.7 km/h 31 % 0 mm
14:29 26.4 °C 7.9 °C 1010.4 hPa South 6.4 km/h 7.4 km/h 31 % 0 mm
14:34 26.5 °C 8 °C 1010.4 hPa South 0.2 km/h 1.9 km/h 31 % 0 mm
14:39 26.7 °C 8.1 °C 1010.4 hPa South 6.8 km/h 11.3 km/h 31 % 0 mm
14:44 26.6 °C 8.1 °C 1010.4 hPa South 4.3 km/h 5.6 km/h 31 % 0 mm
14:49 26.9 °C 7.9 °C 1010 hPa South 9.7 km/h 13 km/h 30 % 0 mm
14:54 27.2 °C 7.6 °C 1010 hPa South 4.8 km/h 7.4 km/h 29 % 0 mm
14:59 27.3 °C 7.2 °C 1009.7 hPa South 3.9 km/h 5.6 km/h 28 % 0 mm
15:04 27.6 °C 7.4 °C 1009.7 hPa SSW 10.6 km/h 13 km/h 28 % 0 mm
15:09 27.4 °C 7.3 °C 1009.7 hPa North 8.7 km/h 14.8 km/h 28 % 0 mm
15:14 27.6 °C 7.4 °C 1009.7 hPa SSW 3.7 km/h 5.6 km/h 28 % 0 mm
15:19 27.8 °C 7.7 °C 1009.7 hPa SSW 3.1 km/h 8 km/h 28 % 0 mm
15:24 28.1 °C 7.3 °C 1009.7 hPa SSW 3.1 km/h 6.4 km/h 27 % 0 mm
15:29 28.2 °C 7.4 °C 1009.4 hPa SSW 10.8 km/h 14.8 km/h 27 % 0 mm
15:34 27.8 °C 7.7 °C 1009.4 hPa SSW 7.7 km/h 13 km/h 28 % 0 mm
15:39 27.9 °C 7.2 °C 1009.4 hPa SSW 5.1 km/h 7.4 km/h 27 % 0 mm
15:44 28.4 °C 7.6 °C 1009.4 hPa SSW 7.6 km/h 9.3 km/h 27 % 0 mm
15:49 28.4 °C 7.6 °C 1009 hPa SSW 1.9 km/h 5.6 km/h 27 % 0 mm
15:54 28.4 °C 7.1 °C 1009 hPa SSW 5.6 km/h 7.4 km/h 26 % 0 mm
15:59 28.3 °C 7 °C 1009 hPa North 10.9 km/h 14.8 km/h 26 % 0 mm
16:04 28.3 °C 7 °C 1009 hPa West 11.3 km/h 14.8 km/h 26 % 0 mm
16:09 28.6 °C 6.7 °C 1009 hPa West 6.1 km/h 9.3 km/h 25 % 0 mm
16:14 28.6 °C 7.2 °C 1009 hPa WNW 5 km/h 6.4 km/h 26 % 0 mm
16:19 28.4 °C 7.1 °C 1009 hPa North 2.7 km/h 9.3 km/h 26 % 0 mm
16:24 28.7 °C 7.8 °C 1008.7 hPa North 1.6 km/h 4.8 km/h 27 % 0 mm
16:29 29 °C 8.1 °C 1008.7 hPa North 2.7 km/h 5.6 km/h 27 % 0 mm
16:34 28.9 °C 8.1 °C 1008.7 hPa South 8.9 km/h 13 km/h 27 % 0 mm
16:39 29 °C 8.1 °C 1008.7 hPa SSE 6.4 km/h 11.3 km/h 27 % 0 mm
16:44 28.8 °C 7.9 °C 1008.4 hPa SE 8.2 km/h 13 km/h 27 % 0 mm
16:49 28.6 °C 7.8 °C 1008.4 hPa SE 5.8 km/h 11.3 km/h 27 % 0 mm
16:54 28.6 °C 7.8 °C 1008.4 hPa SE 5.1 km/h 13 km/h 27 % 0 mm
16:59 28.8 °C 7.9 °C 1008.4 hPa SE 3.4 km/h 9.3 km/h 27 % 0 mm
17:04 28.8 °C 7.9 °C 1008.4 hPa SE 8.9 km/h 11.1 km/h 27 % 0 mm
17:09 29.1 °C 8.2 °C 1008 hPa SE 8.9 km/h 16.7 km/h 27 % 0 mm
17:14 29.2 °C 7.7 °C 1008 hPa SE 1.3 km/h 5.6 km/h 26 % 0 mm
17:19 29.6 °C 8.1 °C 1008 hPa SE 2.4 km/h 7.4 km/h 26 % 0 mm
17:24 29.7 °C 7.6 °C 1008 hPa SE 5.6 km/h 9.7 km/h 25 % 0 mm
17:29 29.2 °C 7.2 °C 1008 hPa South 13.7 km/h 18.5 km/h 25 % 0 mm
17:34 28.7 °C 7.3 °C 1008 hPa SSW 6.4 km/h 9.3 km/h 26 % 0 mm
17:39 28.7 °C 7.3 °C 1008 hPa SSW 4.7 km/h 5.6 km/h 26 % 0 mm
17:44 28.9 °C 6.9 °C 1008 hPa SSW 7.1 km/h 7.4 km/h 25 % 0 mm
17:49 29.1 °C 7.6 °C 1008 hPa SSW 8 km/h 11.1 km/h 26 % 0 mm
17:54 29.1 °C 7 °C 1008 hPa SSW 1 km/h 3.7 km/h 25 % 0 mm
17:59 29.2 °C 7.1 °C 1008 hPa SSW 4.2 km/h 5.6 km/h 25 % 0 mm
18:04 29.1 °C 7.1 °C 1008 hPa SSW 4.8 km/h 5.6 km/h 25 % 0 mm
18:09 29.2 °C 7.1 °C 1008 hPa SW 4.2 km/h 5.6 km/h 25 % 0 mm
18:14 29 °C 7 °C 1008 hPa SSW 4.8 km/h 7.4 km/h 25 % 0 mm
18:19 28.8 °C 6.8 °C 1008 hPa SSW 0.2 km/h 5.6 km/h 25 % 0 mm
18:24 28.6 °C 7.2 °C 1008 hPa SSW 5.1 km/h 5.6 km/h 26 % 0 mm
18:29 28.7 °C 6.7 °C 1008 hPa SSW 7.4 km/h 9.3 km/h 25 % 0 mm
18:34 28.6 °C 7.2 °C 1008 hPa SSW 3.7 km/h 5.6 km/h 26 % 0 mm
18:39 28.8 °C 6.8 °C 1008 hPa North 1.4 km/h 3.7 km/h 25 % 0 mm
18:44 28.9 °C 6.9 °C 1008 hPa SSW 3.1 km/h 5.6 km/h 25 % 0 mm
18:49 28.9 °C 6.9 °C 1008 hPa SW 0.2 km/h 1.9 km/h 25 % 0 mm
18:54 29 °C 7 °C 1008 hPa SSW 1.1 km/h 1.9 km/h 25 % 0 mm
18:59 28.9 °C 6.9 °C 1008 hPa SSW 1.3 km/h 1.9 km/h 25 % 0 mm
19:04 28.9 °C 6.9 °C 1007.7 hPa Calm     25 % 0 mm
19:09 28.9 °C 6.9 °C 1007.7 hPa SSW 0.2 km/h 1.9 km/h 25 % 0 mm
19:14 28.7 °C 6.7 °C 1008 hPa SSW 6.1 km/h 6.4 km/h 25 % 0 mm
19:19 28.4 °C 7.1 °C 1008 hPa SSW 1.9 km/h 5.6 km/h 26 % 0 mm
19:24 28.2 °C 6.8 °C 1008 hPa SSW 1.6 km/h 4.8 km/h 26 % 0 mm
19:29 27.9 °C 7.2 °C 1008 hPa SSW 2.9 km/h 5.6 km/h 27 % 0 mm
19:34 27.7 °C 7 °C 1008 hPa SSW 3.1 km/h 5.6 km/h 27 % 0 mm
19:39 27.7 °C 7.5 °C 1008 hPa SSW 1.3 km/h 1.6 km/h 28 % 0 mm
19:44 27.4 °C 7.3 °C 1008 hPa SW 1.9 km/h 5.6 km/h 28 % 0 mm
19:49 27.2 °C 7.6 °C 1008 hPa SSW 3.1 km/h 5.6 km/h 29 % 0 mm
19:54 26.9 °C 7.3 °C 1008 hPa SSW 0.8 km/h 1.9 km/h 29 % 0 mm
19:59 26.5 °C 7.5 °C 1008 hPa SSW 2.9 km/h 4.8 km/h 30 % 0 mm
20:04 26.1 °C 7.2 °C 1008 hPa SSW 2.4 km/h 3.7 km/h 30 % 0 mm
20:09 25.8 °C 7.4 °C 1008 hPa SSW 0.2 km/h 1.9 km/h 31 % 0 mm
20:14 25.4 °C 7.6 °C 1008 hPa Calm     32 % 0 mm
20:19 25 °C 8.1 °C 1008 hPa Calm     34 % 0 mm
20:24 24.6 °C 7.7 °C 1008.4 hPa Calm   1.9 km/h 34 % 0 mm
20:29 24.2 °C 7.7 °C 1008 hPa SSW 4 km/h 5.6 km/h 35 % 0 mm
20:34 23.7 °C 7.8 °C 1008.4 hPa SW 1.9 km/h 3.7 km/h 36 % 0 mm
20:39 23.4 °C 7.9 °C 1008.4 hPa Calm     37 % 0 mm
20:44 23.2 °C 8.1 °C 1008.4 hPa Calm     38 % 0 mm
20:49 22.9 °C 7.8 °C 1008 hPa SSW 0.3 km/h 3.7 km/h 38 % 0 mm
20:54 22.7 °C 8 °C 1008.4 hPa Calm   1.9 km/h 39 % 0 mm
20:59 22.3 °C 8.1 °C 1008.4 hPa Calm   1.9 km/h 40 % 0 mm
21:04 22 °C 7.8 °C 1008 hPa SSW 0.2 km/h 3.2 km/h 40 % 0 mm
21:09 21.9 °C 8.1 °C 1008.4 hPa SSW 2.6 km/h 7.4 km/h 41 % 0 mm
21:14 21.8 °C 8 °C 1008.4 hPa Calm     41 % 0 mm
21:19 21.8 °C 8.3 °C 1008.4 hPa North 0.3 km/h 3.7 km/h 42 % 0 mm
21:25 21.8 °C 8.3 °C 1008.4 hPa SSW 0.3 km/h 3.7 km/h 42 % 0 mm
21:30 21.5 °C 8.1 °C 1008.4 hPa North 0.6 km/h 1.9 km/h 42 % 0 mm
21:35 21.4 °C 8.3 °C 1008.4 hPa SSW 0.2 km/h 3.7 km/h 43 % 0 mm
21:40 21.5 °C 8.1 °C 1008.4 hPa SSW 1.3 km/h 5.6 km/h 42 % 0 mm
21:45 21.9 °C 8.1 °C 1008.4 hPa SSW 0.5 km/h 1.9 km/h 41 % 0 mm
21:50 21.7 °C 8.2 °C 1008.4 hPa Calm     42 % 0 mm
21:55 21.5 °C 8.4 °C 1008.4 hPa Calm     43 % 0 mm
22:00 21.1 °C 8.1 °C 1008.4 hPa Calm     43 % 0 mm
22:05 20.4 °C 8.4 °C 1008.4 hPa SW 1.4 km/h 1.9 km/h 46 % 0 mm
22:10 20.2 °C 8.6 °C 1008.4 hPa SSW 3.9 km/h 5.6 km/h 47 % 0 mm
22:15 20.1 °C 8.4 °C 1008.4 hPa Calm     47 % 0 mm
22:20 19.9 °C 8.6 °C 1008.4 hPa Calm     48 % 0 mm
22:25 19.7 °C 8.7 °C 1008.4 hPa SSW 1.1 km/h 3.7 km/h 49 % 0 mm
22:30 19.6 °C 8.6 °C 1008.4 hPa SSW 2.7 km/h 3.7 km/h 49 % 0 mm
22:35 19.5 °C 8.8 °C 1008.4 hPa Calm     50 % 0 mm
22:40 19.3 °C 8.6 °C 1008.4 hPa Calm     50 % 0 mm
22:45 18.9 °C 8.5 °C 1008.4 hPa SSW 0.8 km/h 1.9 km/h 51 % 0 mm
22:50 18.7 °C 8.4 °C 1008.4 hPa Calm   1.9 km/h 51 % 0 mm
22:55 18.6 °C 8.2 °C 1008 hPa Calm     51 % 0 mm
23:00 18.3 °C 8.2 °C 1008.4 hPa Calm     52 % 0 mm
23:05 18.2 °C 8.2 °C 1008.4 hPa SSW 0.8 km/h 1.9 km/h 52 % 0 mm
23:10 18.1 °C 8.4 °C 1008.4 hPa North 1.9 km/h 3.7 km/h 53 % 0 mm
23:15 18.1 °C 8.6 °C 1008.4 hPa SW 1.1 km/h   54 % 0 mm
23:20 17.9 °C 8.4 °C 1008.4 hPa Calm     54 % 0 mm
23:25 17.7 °C 8.6 °C 1008.4 hPa Calm     55 % 0 mm
23:30 17.5 °C 8.6 °C 1008 hPa Calm     56 % 0 mm
23:35 17.3 °C 8.4 °C 1008 hPa Calm     56 % 0 mm
23:40 17.1 °C 8.5 °C 1008 hPa Calm     57 % 0 mm
23:45 16.9 °C 8.3 °C 1008 hPa Calm     57 % 0 mm
23:50 16.6 °C 8.3 °C 1008 hPa SW 1.4 km/h 3.7 km/h 58 % 0 mm
23:55 16.4 °C 8.3 °C 1008 hPa SSW 2.6 km/h 5.6 km/h 59 % 0 mm
Ararat Weather
Compliments of Weather Underground - 2.25 mb
Click here to send mail.


ABOUT

Live weather data from Ararat, Victoria, Australia, 3377
Data uploaded from Cumulus every 5 minutes to Weather Underground.
This site then downloads the raw data for formatting and display.
Metric and imperial data can be displayed. Graphs and historical data available.
Includes Sun and Moon times and rain image live from BOM.

Check out Ararat Weather on Facebook, Twitter and Google +

Help support ongoing costs by checking out the ads





Follow @AraratWeather